Jump to content


WESTJET AIRLINES FLIGHT WS108 FLOWN ON 05-29-2017 BY CAPTAIN ADEL CABALLIN

Pilot StatsCaptain Adel Caballin (LDP11) • 700.5 total hours • 378 total flights [View Logbook]
FLIGHT DETAILS
StatusReceived and approved on 2017-05-29 at 20:05:01
Origin AirportEdmonton Intl (CYEG) • Edmonton, Alberta, Canada (2,372 feet MSL)
Filed Flight PlanCYEG XD J601 AROUK J516 YOJ J526 YHY CYZF
Destination AirportYellowknife (CYZF) • Yellowknife, Northwest Territories, Canada (675 feet MSL)
Alternate AirportNone Filed
AirlineWestJet Airlines
AircraftBoeing 737-600 (736 / B737-600)
FS Aircraft UsedBoeing 737-6CTNGX WestJet
Cruising AltitudeFL400
Distance Flown551 nautical miles
Passengers Onboard104 passengers (87.39% full)
DEPARTURE DETAILS
Time Out11:27:59
Taxi Data122,497 lbs total with 19,497 lbs of fuel onboard
Takeoff Data11:40:17 (12 minutes after leaving gate/ramp) • 121,971 lbs total • 9° pitch at 144 knots
Departure METARCYEG 292000Z 10007KT 080V170 15SM FEW090 BKN250 20/M01 A3017 RMK AC1CI5 AC TR SLP228 DENSITY ALT 3200FT
ARRIVAL DETAILS
Landing Data13:31:42 • 112,376 lbs total • 6° pitch doing 115 knots at a rate of -142.26 feet/minute with 8,874 lbs of fuel onboard
Time In13:42:59 (11 minutes after landing)
Ramp Weight111,874 lbs total
Total Fuel Used10,623 lbs
Total Block Time02:09:34 (2.2 hours) while 24 minutes were spent on the ground
Arrival METARCYZF 292300Z 15008KT 15SM FEW030 FEW210 19/02 A3007 RMK CF1CI1 CF TR SLP191 DENSITY ALT 1000FT
MISCELLANEOUS DETAILS
LiveDISPATCH Version4.8.3.1
FS Version
FSUIPC Version4.93
OS VersionWindows 7 32-bit
Screen Resolution1920 x 1080
Pilot's CommentsAlternante: CYHY Route: YEG AROUK J516 YOJ J526 YHY
FLIGHT MAP